• Join FlightAware (Why Join?)
  • Login
  • US Flag 
04:35AM EDT


 

Airport Tracker/Info


-or-


 

Live Flight TrackerFlight Track Log ✈ BMJ59 ✈ 13-Sep-2013 ✈ KBRD - KMSP

Flight Track Log - Related Links

Times and Time Zones

All times are in EDT time to prevent confusion due to time zone crossing. See the BMJ59 flight status page for this flight to view local times or setup timezone preferences in your user account.

Time Position Orientation Groundspeed Altitude Reporting Facility
EDT Latitude Longitude Course Direction KTS MPH feet Rate Location/Type
09:36AM 46.2894 -94.0089 155° Southeast 193 222 5,000  Level Minneapolis Center
09:38AM 46.2345 -93.9774 156° South  Level Estimated
09:39AM 46.1264 -93.8992 157° South 206 237 5,000  Level Minneapolis Center
09:41AM 46.0753 -93.8707 159° South  Level Estimated
09:45AM 45.8872 -93.8058 157° South  Level FlightAware Approximate
09:48AM 45.7346 -93.6824 159° South  Level Estimated
09:49AM 45.6859 -93.6557 159° South  Level Estimated
09:50AM 45.6372 -93.6290 159° South  Level Estimated
09:51AM 45.5885 -93.6024 159° South  Level Estimated
09:52AM 45.5398 -93.5759 159° South  Level Estimated
09:53AM 45.4911 -93.5493 159° South  Level Estimated
09:54AM 45.4423 -93.5228 159° South  Level Estimated
09:55AM 45.3936 -93.4964 159° South  Level Estimated
09:56AM 45.3449 -93.4700 159° South  Level Estimated
09:57AM 45.2961 -93.4437 159° South  Level Estimated
09:58AM 45.2474 -93.4174 159° South  Level Estimated
09:59AM 45.1986 -93.3911 159° South  Level Estimated
10:00AM 45.1498 -93.3649 159° South  Level Estimated
10:01AM 45.1011 -93.3387 159° South  Level Estimated
10:02AM 45.0523 -93.3126 159° South  Level Estimated
10:03AM 45.0035 -93.2865 159° South  Level Estimated
10:04AM 44.9547 -93.2605 159° South  Level Estimated
10:05AM 44.9059 -93.2345 159° South  Level Estimated
10:06AM 44.8820 -93.2218 159° South  Level Estimated
10:07AM 44.8820 -93.2218 35° Northeast  Level Estimated
10:08AM 44.8820 -93.2218 35° Northeast  Level Estimated
10:09AM 44.8820 -93.2218 35° Northeast  Level Estimated
10:10AM 44.8820 -93.2218 35° Northeast  Level Estimated
10:11AM 44.8820 -93.2218 35° Northeast  Level Estimated
10:12AM 44.8820 -93.2218 35° Northeast  Level Estimated
10:13AM 44.8820 -93.2218 35° Northeast  Level Estimated
10:14AM 44.8820 -93.2218 35° Northeast  Level Estimated
10:15AM 44.8820 -93.2218 35° Northeast  Level Estimated
10:16AM 44.8820 -93.2218 35° Northeast  Level Estimated
10:17AM 44.8820 -93.2218 35° Northeast  Level Estimated
10:18AM 44.8820 -93.2218 35° Northeast  Level Estimated
10:19AM 44.8820 -93.2218 35° Northeast  Level Estimated
10:20AM 44.8820 -93.2218 35° Northeast  Level Estimated
10:21AM 44.8820 -93.2218 35° Northeast  Level Estimated
10:22AM 44.8820 -93.2218 35° Northeast  Level Estimated
10:23AM 44.8820 -93.2218 35° Northeast  Level Estimated
10:24AM 44.8820 -93.2218 35° Northeast  Level Estimated